Important: These forums are for discussions between SkyDemon users. They are not routinely monitored by SkyDemon staff so any urgent issues should be sent directly to our Customer Support.

METARs for some of the Polish aerodromes not displayed


Author
Message
joanna
joanna
Too Much Forum (1.4K reputation)Too Much Forum (1.4K reputation)Too Much Forum (1.4K reputation)Too Much Forum (1.4K reputation)Too Much Forum (1.4K reputation)Too Much Forum (1.4K reputation)Too Much Forum (1.4K reputation)Too Much Forum (1.4K reputation)Too Much Forum (1.4K reputation)
Group: Forum Members
Posts: 10, Visits: 34
Hello,

I've noticed that METARs for some of the Polish airports are notoriously not available in the "Weather" tab of Sky Demon for iPad.

For example: I can never see a METAR for EPMO, yet Sky Demon always shows a TAF for this same airport. FWIW, I can see METARs for many other Polish airports, e.g. EPWA.

Thanks,
joanna.
Tim Dawson
Tim Dawson
SkyDemon Team (541K reputation)SkyDemon Team (541K reputation)SkyDemon Team (541K reputation)SkyDemon Team (541K reputation)SkyDemon Team (541K reputation)SkyDemon Team (541K reputation)SkyDemon Team (541K reputation)SkyDemon Team (541K reputation)SkyDemon Team (541K reputation)
Group: Forum Members
Posts: 6.4K, Visits: 5K
It appears that there are some airfields in Poland who do not transmit their METAR to the NOAA, which is where we currently source our METAR data from. There is little we can do about this in the short term, though in the medium term we are investigating alternative suppliers of this data.
joanna
joanna
Too Much Forum (1.4K reputation)Too Much Forum (1.4K reputation)Too Much Forum (1.4K reputation)Too Much Forum (1.4K reputation)Too Much Forum (1.4K reputation)Too Much Forum (1.4K reputation)Too Much Forum (1.4K reputation)Too Much Forum (1.4K reputation)Too Much Forum (1.4K reputation)
Group: Forum Members
Posts: 10, Visits: 34
Strange, as it should be the same organization that issues METARs for all the Polish controlled aerodromes...

Joseph
Joseph
Too Much Forum (2K reputation)Too Much Forum (2K reputation)Too Much Forum (2K reputation)Too Much Forum (2K reputation)Too Much Forum (2K reputation)Too Much Forum (2K reputation)Too Much Forum (2K reputation)Too Much Forum (2K reputation)Too Much Forum (2K reputation)
Group: Forum Members
Posts: 18, Visits: 553
Output produced at 1329 UTC 18 June 2014

found at http://aviationweather.gov/adds/metars/
EPMO 181300Z 31010KT 250V330 CAVOK 22/04 Q1016
EPMO 181230Z 27011KT 230V310 CAVOK 22/04 Q1016
EPMO 181200Z 28011KT 230V320 CAVOK 21/03 Q1017
EPMO 181130Z 32008KT 260V360 CAVOK 22/02 Q1017
EPMO 181100Z 27007KT 220V350 CAVOK 21/02 Q1017
EPMO 181030Z 29005KT 230V030 CAVOK 21/02 Q1017
EPMO 181000Z VRB08KT CAVOK 20/M00 Q1017
EPMO 180930Z 25007KT 210V290 CAVOK 20/02 Q1017

TAF EPMO 181130Z 1812/1821 28007KT CAVOK
GO

Merge Selected

Merge into selected topic...



Merge into merge target...



Merge into a specific topic ID...




Reading This Topic

Login

Explore
Messages
Mentions
Search